Lasauses, Colorado
Current Conditions -  °F | °C
As of 5:52 PM on Monday 20 Oct 2014 (Local Time) from KALS Reporting Station
Overcast Overcast  
Wind Chill: 60°   Ceiling: 9500
Heat Index: 60°   Visibility: 10mi
Dew Point: 33°   Wind: 17mph
Humidity: 36%   Direction: 220°SW
Pressure: 30.21"   Gusts: NA
Location:  37.2401°N, 105.856°W
Report Text: KALS 202352Z AUTO 22015KT 10SM OVC095 16/01 A3021 RMK AO2 SLP182 T01560006 10200 20144 55002
Loading
Personal Weather Stations






























Interactive Weather Map
Tropical Storm Tracking
New forecast layout! Learn more

10-Day Weather Forecast

Advertisements
Track Severe Weather on mobile